.
WxDataArchive / Data Records for 2005-12-22
2005-12-21 December 2005 2005-12-23

Data Records for Thursday, 22 December 2005

Time	Temp	Chill	HIndex	Humid	Dewpt	 Wind 	HiWind	WindDir	Rain 	Barom 
-----	----	-----	------	-----	-----	------	------	-------	-----	----- 
00:00	17.8	17.8	17.8	88	14.9	1	2	248	0.00	30.243 
00:05	17.8	17.8	17.8	87	14.6	1	3	248	0.00	30.243 
00:10	17.7	17.7	17.7	87	14.5	1	3	248	0.00	30.243 
00:15	17.5	17.5	17.5	87	14.3	1	3	248	0.00	30.238 
00:20	17.5	17.5	17.5	87	14.3	2	4	248	0.00	30.238 
00:25	17.3	17.3	17.3	87	14.1	1	3	248	0.00	30.238 
00:30	17.3	17.3	17.3	88	14.4	1	4	248	0.00	30.239 
00:35	17.3	17.3	17.3	88	14.4	1	4	248	0.00	30.239 
00:40	17.3	17.3	17.3	88	14.4	1	3	248	0.00	30.239 
00:45	17.3	17.3	17.3	88	14.4	1	3	248	0.00	30.238 
00:50	17.3	17.3	17.3	89	14.6	1	4	248	0.00	30.238 
00:55	17.3	17.3	17.3	89	14.6	1	4	248	0.00	30.238 
01:00	17.3	17.3	17.3	89	14.6	1	2	270	0.00	30.231 
01:05	17.3	17.3	17.3	89	14.6	1	4	225	0.00	30.231 
01:10	17.3	17.3	17.3	89	14.6	2	4	248	0.00	30.231 
01:15	17.2	17.2	17.2	88	14.3	2	6	248	0.00	30.229 
01:20	17.2	17.2	17.2	88	14.3	1	3	225	0.00	30.229 
01:25	17.3	17.3	17.3	88	14.4	1	4	248	0.00	30.229 
01:30	17.3	17.3	17.3	88	14.4	1	3	248	0.00	30.229 
01:35	17.3	17.3	17.3	88	14.4	1	3	248	0.00	30.229 
01:40	17.3	17.3	17.3	88	14.4	1	2	248	0.00	30.229 
01:45	17.5	17.5	17.5	88	14.6	1	4	248	0.00	30.220 
01:50	17.5	17.5	17.5	88	14.6	1	3	248	0.00	30.220 
01:55	17.5	17.5	17.5	88	14.6	2	5	248	0.00	30.220 
02:00	17.7	17.7	17.7	88	14.8	1	3	248	0.00	30.220 
02:05	17.7	17.7	17.7	88	14.8	2	5	248	0.00	30.220 
02:10	17.8	17.8	17.8	88	14.9	2	6	248	0.00	30.220 
02:15	17.8	17.8	17.8	88	14.9	1	4	248	0.00	30.226 
02:20	18.0	18.0	18.0	88	15.1	1	4	248	0.00	30.226 
02:25	18.0	18.0	18.0	88	15.1	1	4	248	0.00	30.226 
02:30	18.1	18.1	18.1	88	15.2	1	4	248	0.00	30.227 
02:35	18.1	18.1	18.1	88	15.2	1	3	248	0.00	30.227 
02:40	18.3	18.3	18.3	88	15.4	2	4	248	0.00	30.227 
02:45	18.3	18.3	18.3	87	15.1	1	4	248	0.00	30.222 
02:50	18.3	18.3	18.3	87	15.1	2	3	248	0.00	30.222 
02:55	18.3	18.3	18.3	87	15.1	1	4	248	0.00	30.222 
03:00	18.3	18.3	18.3	87	15.1	1	3	248	0.00	30.220 
03:05	18.4	18.4	18.4	87	15.2	2	6	248	0.00	30.220 
03:10	18.4	18.4	18.4	86	14.9	0	2	248	0.00	30.220 
03:15	18.4	18.4	18.4	87	15.2	1	2	248	0.00	30.224 
03:20	18.4	18.4	18.4	87	15.2	1	5	248	0.00	30.224 
03:25	18.4	18.4	18.4	87	15.2	3	6	248	0.00	30.224 
03:30	18.4	18.4	18.4	87	15.2	2	5	248	0.00	30.222 
03:35	18.6	18.6	18.6	87	15.4	2	6	248	0.00	30.222 
03:40	18.6	18.6	18.6	88	15.6	2	4	248	0.00	30.222 
03:45	18.8	18.8	18.8	88	15.8	1	4	248	0.00	30.216 
03:50	18.8	18.8	18.8	88	15.8	2	4	248	0.00	30.216 
03:55	18.9	18.9	18.9	88	15.9	1	3	248	0.00	30.216 
04:00	18.9	18.9	18.9	88	15.9	1	2	248	0.00	30.205 
04:05	19.1	19.1	19.1	88	16.1	1	3	248	0.00	30.205 
04:10	19.2	19.2	19.2	88	16.2	0	1	248	0.00	30.205 
04:15	19.2	19.2	19.2	88	16.2	1	2	248	0.00	30.196 
04:20	19.4	19.4	19.4	88	16.4	1	4	248	0.00	30.196 
04:25	19.5	19.5	19.5	88	16.5	1	2	248	0.00	30.196 
04:30	19.7	19.7	19.7	89	17.0	1	4	248	0.00	30.199 
04:35	20.0	20.0	20.0	90	17.5	1	3	248	0.00	30.199 
04:40	20.2	20.2	20.2	90	17.7	1	3	248	0.00	30.199 
04:45	20.2	20.2	20.2	90	17.7	0	2	248	0.00	30.188 
04:50	20.3	20.3	20.3	90	17.8	1	3	248	0.00	30.188 
04:55	20.5	20.5	20.5	90	18.0	1	3	248	0.00	30.188 
05:00	20.6	20.6	20.6	91	18.4	2	6	248	0.00	30.183 
05:05	20.6	20.6	20.6	91	18.4	2	4	248	0.00	30.183 
05:10	20.8	20.8	20.8	91	18.6	2	5	248	0.00	30.183 
05:15	21.0	21.0	21.0	92	19.0	1	5	248	0.00	30.180 
05:20	21.1	21.1	21.1	92	19.1	1	4	248	0.00	30.180 
05:25	21.4	21.4	21.4	92	19.4	1	3	248	0.00	30.180 
05:30	21.6	21.6	21.6	92	19.6	1	2	248	0.00	30.187 
05:35	21.8	21.8	21.8	92	19.8	1	3	248	0.00	30.187 
05:40	21.9	21.9	21.9	92	19.9	2	4	248	0.00	30.187 
05:45	22.2	22.2	22.2	92	20.2	1	4	248	0.00	30.189 
05:50	22.4	22.4	22.4	92	20.4	2	5	248	0.00	30.189 
05:55	22.5	22.5	22.5	92	20.5	2	6	248	0.00	30.189 
06:00	22.7	22.7	22.7	91	20.5	2	4	248	0.00	30.194 
06:05	22.9	22.9	22.9	91	20.7	1	3	248	0.00	30.194 
06:10	22.9	22.9	22.9	91	20.7	1	3	248	0.00	30.194 
06:15	23.0	23.0	23.0	91	20.8	1	4	248	0.00	30.197 
06:20	23.0	23.0	23.0	91	20.8	1	4	225	0.00	30.197 
06:25	23.2	23.2	23.2	91	21.0	1	3	248	0.00	30.197 
06:30	23.2	23.2	23.2	90	20.7	2	10	248	0.00	30.188 
06:35	23.0	23.0	23.0	90	20.5	2	6	248	0.00	30.188 
06:40	23.0	23.0	23.0	90	20.5	2	5	248	0.00	30.188 
06:45	23.0	23.0	23.0	90	20.5	2	4	248	0.00	30.170 
06:50	22.9	22.9	22.9	90	20.4	3	7	248	0.00	30.170 
06:55	22.9	22.9	22.9	90	20.4	1	3	315	0.00	30.170 
07:00	22.9	22.9	22.9	90	20.4	3	7	248	0.00	30.170 
07:05	22.9	22.9	22.9	90	20.4	2	6	248	0.00	30.170 
07:10	22.9	22.9	22.9	91	20.7	1	4	225	0.00	30.170 
07:15	22.9	22.9	22.9	91	20.7	1	4	270	0.00	30.154 
07:20	23.0	23.0	23.0	91	20.8	2	5	248	0.00	30.154 
07:25	23.0	23.0	23.0	91	20.8	2	9	248	0.00	30.154 
07:30	23.0	23.0	23.0	91	20.8	2	5	248	0.00	30.154 
07:35	23.2	23.2	23.2	91	21.0	3	7	248	0.00	30.154 
07:40	23.2	23.2	23.2	91	21.0	1	4	248	0.00	30.154 
07:45	23.2	23.2	23.2	91	21.0	1	3	248	0.00	30.145 
07:50	23.3	23.3	23.3	92	21.3	2	5	248	0.00	30.145 
07:55	23.5	23.5	23.5	92	21.5	2	5	248	0.00	30.145 
08:00	23.8	23.8	23.8	92	21.8	3	6	248	0.00	30.145 
08:05	23.9	23.9	23.9	92	21.9	2	5	248	0.00	30.145 
08:10	24.2	24.2	24.2	92	22.2	3	7	248	0.00	30.145 
08:15	24.4	24.4	24.4	92	22.4	2	5	248	0.00	30.145 
08:20	24.5	24.5	24.5	92	22.5	2	4	248	0.00	30.145 
08:25	24.7	24.7	24.7	92	22.7	2	5	248	0.00	30.145 
08:30	24.8	24.8	24.8	92	22.8	2	4	248	0.00	30.156 
08:35	25.1	25.1	25.1	92	23.1	3	7	248	0.00	30.156 
08:40	25.3	25.3	25.3	92	23.3	2	5	248	0.00	30.156 
08:45	25.6	25.6	25.6	92	23.6	2	6	248	0.00	30.158 
08:50	25.7	25.7	25.7	92	23.7	2	4	248	0.00	30.158 
08:55	26.0	26.0	26.0	91	23.7	2	5	248	0.00	30.158 
09:00	26.1	26.1	26.1	91	23.8	3	6	248	0.00	30.151 
09:05	26.3	26.3	26.3	91	24.0	2	7	248	0.00	30.151 
09:10	26.4	26.4	26.4	91	24.1	2	6	248	0.00	30.151 
09:15	26.6	26.6	26.6	90	24.1	2	6	225	0.00	30.141 
09:20	26.7	26.7	26.7	90	24.2	2	4	248	0.00	30.141 
09:25	26.7	26.7	26.7	89	23.9	3	9	248	0.00	30.141 
09:30	26.7	26.7	26.7	88	23.6	3	9	248	0.00	30.147 
09:35	26.9	26.9	26.9	87	23.6	3	6	248	0.00	30.147 
09:40	27.0	27.0	27.0	87	23.7	3	7	248	0.00	30.147 
09:45	27.0	27.0	27.0	86	23.4	3	7	248	0.00	30.148 
09:50	27.0	27.0	27.0	86	23.4	3	6	248	0.00	30.148 
09:55	26.9	26.9	26.9	85	23.0	3	7	248	0.00	30.148 
10:00	27.0	27.0	27.0	85	23.1	2	10	248	0.00	30.146 
10:05	27.0	27.0	27.0	85	23.1	3	7	248	0.00	30.146 
10:10	27.2	27.2	27.2	84	23.0	3	7	248	0.00	30.146 
10:15	27.2	27.2	27.2	84	23.0	2	5	248	0.00	30.148 
10:20	27.3	27.3	27.3	84	23.1	3	9	248	0.00	30.148 
10:25	27.2	27.2	27.2	84	23.0	3	6	248	0.00	30.148 
10:30	27.2	27.2	27.2	83	22.7	3	5	248	0.00	30.141 
10:35	27.2	27.2	27.2	83	22.7	2	11	248	0.00	30.141 
10:40	27.3	27.3	27.3	83	22.8	2	4	248	0.00	30.141 
10:45	27.8	27.8	27.8	82	23.0	3	8	248	0.00	30.140 
10:50	28.1	28.1	28.1	82	23.3	2	6	248	0.00	30.140 
10:55	28.2	28.2	28.2	81	23.1	3	9	248	0.00	30.140 
11:00	28.2	28.2	28.2	81	23.1	3	8	248	0.00	30.127 
11:05	28.2	28.2	28.2	81	23.1	3	9	248	0.00	30.127 
11:10	28.5	24.0	28.5	81	23.4	4	9	248	0.00	30.127 
11:15	28.8	28.8	28.8	81	23.7	3	9	248	0.00	30.121 
11:20	29.3	25.0	29.3	79	23.6	4	14	248	0.00	30.121 
11:25	29.7	25.4	29.7	79	24.0	4	12	248	0.00	30.121 
11:30	30.1	30.1	30.1	79	24.4	3	10	248	0.00	30.106 
11:35	30.3	26.1	30.3	78	24.3	4	9	248	0.00	30.106 
11:40	30.3	26.1	30.3	78	24.3	4	10	248	0.00	30.106 
11:45	30.4	30.4	30.4	78	24.4	3	9	248	0.00	30.099 
11:50	30.6	26.5	30.6	78	24.6	4	10	248	0.00	30.099 
11:55	30.6	26.5	30.6	78	24.6	4	12	248	0.00	30.099 
12:00	30.9	26.8	30.9	78	24.9	4	11	248	0.00	30.085 
12:05	31.0	25.9	31.0	78	25.0	5	14	248	0.00	30.085 
12:10	31.5	27.5	31.5	78	25.4	4	10	248	0.00	30.085 
12:15	31.5	26.5	31.5	77	25.1	5	14	248	0.00	30.077 
12:20	31.6	25.8	31.6	77	25.2	6	11	248	0.00	30.077 
12:25	31.6	25.8	31.6	78	25.5	6	14	248	0.00	30.077 
12:30	31.6	25.8	31.6	77	25.2	6	15	248	0.00	30.060 
12:35	31.8	26.0	31.8	77	25.4	6	12	248	0.00	30.060 
12:40	31.9	26.1	31.9	77	25.5	6	15	248	0.00	30.060 
12:45	32.2	27.3	32.2	77	25.8	5	11	248	0.00	30.061 
12:50	32.5	26.8	32.5	77	26.1	6	14	270	0.00	30.061 
12:55	32.7	27.9	32.7	77	26.3	5	11	248	0.00	30.061 
13:00	33.1	29.3	33.1	76	26.4	4	11	248	0.00	30.057 
13:05	33.2	29.5	33.2	76	26.5	4	10	248	0.00	30.057 
13:10	33.2	29.5	33.2	76	26.5	4	10	248	0.00	30.057 
13:15	33.2	29.5	33.2	76	26.5	4	11	248	0.00	30.040 
13:20	33.2	28.5	33.2	77	26.8	5	12	248	0.00	30.040 
13:25	33.2	28.5	33.2	77	26.8	5	15	248	0.00	30.040 
13:30	33.1	27.5	33.1	77	26.7	6	15	248	0.00	30.029 
13:35	33.2	27.7	33.2	77	26.8	6	13	248	0.00	30.029 
13:40	33.1	26.8	33.1	77	26.7	7	16	270	0.00	30.029 
13:45	33.2	29.5	33.2	77	26.8	4	10	270	0.00	30.028 
13:50	33.2	27.7	33.2	77	26.8	6	12	248	0.00	30.028 
13:55	33.2	28.5	33.2	77	26.8	5	11	270	0.00	30.028 
14:00	33.2	27.7	33.2	77	26.8	6	13	270	0.00	30.016 
14:05	33.5	28.8	33.5	77	27.1	5	13	248	0.00	30.016 
14:10	33.8	29.2	33.8	77	27.4	5	12	248	0.00	30.016 
14:15	34.4	30.8	34.4	75	27.3	4	12	248	0.00	30.001 
14:20	34.9	30.5	34.9	74	27.5	5	10	248	0.00	30.001 
14:25	35.0	29.8	35.0	73	27.2	6	15	270	0.00	30.001 
14:30	35.0	29.8	35.0	74	27.6	6	13	248	0.00	30.000 
14:35	35.2	30.0	35.2	73	27.4	6	12	248	0.00	30.000 
14:40	35.3	31.9	35.3	74	27.9	4	11	248	0.00	30.000 
14:45	35.2	30.0	35.2	73	27.4	6	12	248	0.00	30.003 
14:50	35.2	30.0	35.2	73	27.4	6	16	248	0.00	30.003 
14:55	35.2	30.8	35.2	74	27.8	5	13	270	0.00	30.003 
15:00	35.3	31.9	35.3	74	27.9	4	12	248	0.00	30.008 
15:05	35.5	31.2	35.5	73	27.7	5	10	248	0.00	30.008 
15:10	35.8	31.5	35.8	73	28.0	5	12	248	0.00	30.008 
15:15	35.9	31.7	35.9	72	27.8	5	12	248	0.00	30.002 
15:20	35.8	31.5	35.8	73	28.0	5	12	248	0.00	30.002 
15:25	35.8	31.5	35.8	73	28.0	5	11	248	0.00	30.002 
15:30	35.8	30.8	35.8	73	28.0	6	12	248	0.00	30.000 
15:35	35.8	30.8	35.8	73	28.0	6	13	248	0.00	30.000 
15:40	35.6	31.3	35.6	73	27.8	5	17	248	0.00	30.000 
15:45	35.6	30.5	35.6	73	27.8	6	11	248	0.00	30.000 
15:50	35.6	31.3	35.6	73	27.8	5	11	248	0.00	30.000 
15:55	35.8	32.5	35.8	73	28.0	4	8	248	0.00	30.000 
16:00	35.8	32.5	35.8	73	28.0	4	13	248	0.00	29.998 
16:05	35.8	32.5	35.8	73	28.0	4	8	248	0.00	29.998 
16:10	35.8	32.5	35.8	73	28.0	4	12	248	0.00	29.998 
16:15	35.6	35.6	35.6	74	28.1	2	5	248	0.00	29.988 
16:20	35.5	35.5	35.5	75	28.4	2	6	225	0.00	29.988 
16:25	35.5	35.5	35.5	75	28.4	3	7	248	0.00	29.988 
16:30	35.3	35.3	35.3	75	28.2	2	5	248	0.00	29.985 
16:35	35.3	35.3	35.3	75	28.2	3	7	248	0.00	29.985 
16:40	35.2	31.8	35.2	74	27.8	4	9	248	0.00	29.985 
16:45	35.2	35.2	35.2	75	28.1	3	6	248	0.00	29.986 
16:50	35.0	35.0	35.0	75	27.9	3	7	248	0.00	29.986 
16:55	35.0	35.0	35.0	75	27.9	3	7	248	0.00	29.986 
17:00	35.2	31.8	35.2	75	28.1	4	9	248	0.00	29.989 
17:05	35.2	35.2	35.2	75	28.1	3	6	248	0.00	29.989 
17:10	35.2	31.8	35.2	75	28.1	4	9	248	0.00	29.989 
17:15	35.0	35.0	35.0	75	27.9	3	9	225	0.00	29.984 
17:20	35.0	35.0	35.0	75	27.9	3	9	248	0.00	29.984 
17:25	35.2	35.2	35.2	75	28.1	3	8	248	0.00	29.984 
17:30	35.3	31.9	35.3	75	28.2	4	9	248	0.00	29.978 
17:35	35.5	32.1	35.5	75	28.4	4	13	248	0.00	29.978 
17:40	35.3	35.3	35.3	75	28.2	3	12	248	0.00	29.978 
17:45	35.5	32.1	35.5	75	28.4	4	12	248	0.00	29.976 
17:50	35.5	32.1	35.5	75	28.4	4	12	248	0.00	29.976 
17:55	35.5	32.1	35.5	75	28.4	4	8	248	0.00	29.976 
18:00	35.5	32.1	35.5	75	28.4	4	14	248	0.00	29.972 
18:05	35.5	32.1	35.5	75	28.4	4	10	248	0.00	29.972 
18:10	35.5	35.5	35.5	75	28.4	3	7	248	0.00	29.972 
18:15	35.5	32.1	35.5	76	28.7	4	11	248	0.00	29.972 
18:20	35.6	32.2	35.6	76	28.8	4	9	248	0.00	29.972 
18:25	35.6	35.6	35.6	76	28.8	3	7	248	0.00	29.972 
18:30	35.6	35.6	35.6	76	28.8	3	9	248	0.00	29.971 
18:35	35.8	32.5	35.8	76	29.0	4	12	248	0.00	29.971 
18:40	35.8	35.8	35.8	76	29.0	3	13	248	0.00	29.971 
18:45	35.9	32.6	35.9	75	28.8	4	11	248	0.00	29.972 
18:50	35.9	35.9	35.9	75	28.8	3	9	248	0.00	29.972 
18:55	35.9	32.6	35.9	75	28.8	4	11	248	0.00	29.972 
19:00	35.9	35.9	35.9	75	28.8	3	7	248	0.00	29.970 
19:05	35.9	32.6	35.9	75	28.8	4	9	248	0.00	29.970 
19:10	35.9	35.9	35.9	75	28.8	3	10	248	0.00	29.970 
19:15	35.9	35.9	35.9	75	28.8	3	7	248	0.00	29.960 
19:20	35.8	35.8	35.8	75	28.7	3	10	248	0.00	29.960 
19:25	35.9	32.6	35.9	75	28.8	4	9	248	0.00	29.960 
19:30	35.9	32.6	35.9	74	28.4	4	9	248	0.00	29.957 
19:35	36.0	32.7	36.0	73	28.2	4	10	248	0.00	29.957 
19:40	36.0	32.7	36.0	73	28.2	4	7	248	0.00	29.957 
19:45	36.0	32.7	36.0	73	28.2	4	11	248	0.00	29.957 
19:50	36.2	32.9	36.2	72	28.1	4	9	248	0.00	29.957 
19:55	36.2	32.0	36.2	72	28.1	5	12	248	0.00	29.957 
20:00	36.3	32.1	36.3	71	27.8	5	12	270	0.00	29.957 
20:05	36.3	33.0	36.3	71	27.8	4	9	248	0.00	29.957 
20:10	36.5	32.4	36.5	72	28.3	5	11	248	0.00	29.957 
20:15	36.5	32.4	36.5	71	28.0	5	11	270	0.00	29.955 
20:20	36.5	32.4	36.5	71	28.0	5	12	248	0.00	29.955 
20:25	36.5	33.3	36.5	72	28.3	4	11	248	0.00	29.955 
20:30	36.5	33.3	36.5	72	28.3	4	10	248	0.00	29.954 
20:35	36.3	33.0	36.3	72	28.2	4	11	248	0.00	29.954 
20:40	36.3	32.1	36.3	72	28.2	5	11	248	0.00	29.954 
20:45	36.2	32.0	36.2	72	28.1	5	11	248	0.00	29.951 
20:50	36.0	32.7	36.0	73	28.2	4	9	248	0.00	29.951 
20:55	36.0	31.8	36.0	73	28.2	5	11	248	0.00	29.951 
21:00	35.9	31.7	35.9	73	28.1	5	10	248	0.00	29.942 
21:05	35.9	32.6	35.9	73	28.1	4	10	248	0.00	29.942 
21:10	35.8	32.5	35.8	73	28.0	4	13	248	0.00	29.942 
21:15	35.8	31.5	35.8	73	28.0	5	14	248	0.00	29.942 
21:20	35.6	32.2	35.6	73	27.8	4	11	248	0.00	29.942 
21:25	35.6	30.5	35.6	74	28.1	6	12	270	0.00	29.942 
21:30	35.6	31.3	35.6	74	28.1	5	10	248	0.00	29.935 
21:35	35.5	31.2	35.5	74	28.0	5	13	248	0.00	29.935 
21:40	35.6	30.5	35.6	74	28.1	6	17	248	0.00	29.935 
21:45	35.6	30.5	35.6	74	28.1	6	16	248	0.00	29.933 
21:50	35.6	31.3	35.6	74	28.1	5	12	248	0.00	29.933 
21:55	35.6	30.5	35.6	74	28.1	6	15	248	0.00	29.933 
22:00	35.6	30.5	35.6	74	28.1	6	11	248	0.00	29.934 
22:05	35.6	30.5	35.6	74	28.1	6	13	248	0.00	29.934 
22:10	35.5	32.1	35.5	74	28.0	4	10	248	0.00	29.934 
22:15	35.5	30.4	35.5	74	28.0	6	15	248	0.00	29.922 
22:20	35.5	30.4	35.5	75	28.4	6	13	248	0.00	29.922 
22:25	35.5	30.4	35.5	75	28.4	6	12	248	0.00	29.922 
22:30	35.3	31.9	35.3	75	28.2	4	9	248	0.00	29.927 
22:35	35.3	31.0	35.3	75	28.2	5	12	248	0.00	29.927 
22:40	35.2	31.8	35.2	76	28.4	4	10	248	0.00	29.927 
22:45	35.2	30.8	35.2	76	28.4	5	13	248	0.00	29.932 
22:50	35.2	30.8	35.2	76	28.4	5	11	248	0.00	29.932 
22:55	35.2	30.0	35.2	76	28.4	6	12	248	0.00	29.932 
23:00	35.0	30.6	35.0	76	28.2	5	11	248	0.00	29.924 
23:05	35.0	29.8	35.0	76	28.2	6	12	270	0.00	29.924 
23:10	35.0	30.6	35.0	76	28.2	5	13	248	0.00	29.924 
23:15	34.9	30.5	34.9	77	28.4	5	10	270	0.00	29.919 
23:20	34.9	29.7	34.9	77	28.4	6	15	248	0.00	29.919 
23:25	34.9	29.7	34.9	77	28.4	6	12	248	0.00	29.919 
23:30	34.7	31.2	34.7	77	28.2	4	9	248	0.00	29.917 
23:35	34.7	30.2	34.7	77	28.2	5	13	248	0.00	29.917 
23:40	34.7	31.2	34.7	77	28.2	4	9	248	0.00	29.917 
23:45	34.7	30.2	34.7	77	28.2	5	11	248	0.00	29.917 
23:50	34.6	31.1	34.6	78	28.5	4	7	270	0.00	29.917 
23:55	34.6	30.1	34.6	78	28.5	5	13	248	0.00	29.917 

CoCoRaHS
IN-AL-39
A2 Web Hosting
Creative Commons License
GoDaddy
Look for:

loaded 2017-10-17 00:28:28 • last modified 2010-11-18 10:43:29
Privacy PolicyDisclaimer
• wx.awcolley.com is powered by PmWiki v.2002016 •
• all content (unless otherwise noted) © 2017 A W Colley